KFWA/FWA METAR and TAF weather

Enter ICAO airport designator
Station Type Date Time Source
KFWA METAR 2019/05/26 22:54 UTC NOAA

KFWA 262254Z 29007KT 10SM FEW025 BKN080 BKN100 BKN180 22/17 A3003 RMK AO2 SLP166 TCU DSNT NE T02220167 $


Station Type Date Time Source
KFWA Decoded METAR 2019/05/26 22:54 UTC NOAA

FORT WAYNE INTERNATIONAL, IN, United States (KFWA) 41-00N 85-12W 248M
May 26, 2019 - 06:54 PM EDT / 2019.05.26 2254 UTC
Wind: from the WNW (290 degrees) at 8 MPH (7 KT):0
Visibility: 10 mile(s):0
Sky conditions: mostly cloudy
Weather: Towering cumulus clouds observed
Temperature: 72.0 F (22.2 C)
Dew Point: 62.1 F (16.7 C)
Relative Humidity: 71%
Pressure (altimeter): 30.03 in. Hg (1016 hPa)
ob: KFWA 262254Z 29007KT 10SM FEW025 BKN080 BKN100 BKN180 22/17 A3003 RMK AO2 SLP166 TCU DSNT NE T02220167
cycle: 23

Station Type Date Time Source
KFWA TAF 2019/05/26 18:22 UTC NOAA

TAF KFWA 261720Z 2618/2718 25008KT P6SM -SHRA SCT035 OVC100
FM262100 29008KT 6SM -SHRA VCTS SCT025 BKN040CB
FM262300 32006KT P6SM SCT025 BKN100
FM270300 VRB03KT P6SM SCT040
FM271300 11008KT P6SM BKN150

Example: see airport list